UKHH/HRK METAR and TAF weather

Enter ICAO airport designator
Station Type Date Time Source
UKHH METAR 2021/10/20 06:30 UTC NOAA

UKHH 200630Z 31003MPS 280V350 CAVOK 02/M03 Q1027 R25/0///81 NOSIG


Station Type Date Time Source
UKHH Decoded METAR 2021/10/20 06:30 UTC NOAA

Kharkiv, Ukraine (UKHH) 49-58N 036-08E 155M
Oct 20, 2021 - 02:30 AM EDT / 2021.10.20 0630 UTC
Wind: from the NW (310 degrees) at 7 MPH (6 KT) (direction variable):0
Visibility: greater than 7 mile(s):0
Temperature: 35 F (2 C)
Windchill: 28 F (-2 C):1
Dew Point: 26 F (-3 C)
Relative Humidity: 69%
Pressure (altimeter): 30.33 in. Hg (1027 hPa)
ob: UKHH 200630Z 31003MPS 280V350 CAVOK 02/M03 Q1027 R25/0///81 NOSIG
cycle: 6

Station Type Date Time Source
UKHH TAF 2021/10/20 06:09 UTC NOAA

TAF UKHH 200505Z 2006/2106 28003MPS 9999 SCT020 TX09/2012Z TNM00/2006Z
BECMG 2007/2009 24006G12MPS PROB40
TEMPO 2015/2018 21010G15MPS BKN015CB
TEMPO 2018/2106 20010G16MPS BKN015CB

Example: see airport list